sensor_id;sensor_type;location;lat;lon;timestamp;pressure;altitude;pressure_sealevel;temperature;humidity
12219;BME280;6172;42.646;23.344;2023-07-16T00:01:00;94808.78;;;22.32;100.00
12219;BME280;6172;42.646;23.344;2023-07-16T00:03:27;94808.00;;;22.31;100.00
12219;BME280;6172;42.646;23.344;2023-07-16T00:05:54;94820.84;;;22.29;100.00
12219;BME280;6172;42.646;23.344;2023-07-16T00:08:21;94807.84;;;22.20;100.00
12219;BME280;6172;42.646;23.344;2023-07-16T00:10:49;94809.94;;;22.25;100.00
12219;BME280;6172;42.646;23.344;2023-07-16T00:13:16;94803.41;;;22.28;100.00
12219;BME280;6172;42.646;23.344;2023-07-16T00:15:43;94803.25;;;22.17;100.00
12219;BME280;6172;42.646;23.344;2023-07-16T00:18:10;94807.06;;;22.20;100.00
12219;BME280;6172;42.646;23.344;2023-07-16T00:20:37;94807.16;;;22.25;100.00
12219;BME280;6172;42.646;23.344;2023-07-16T00:23:04;94802.09;;;22.24;100.00
12219;BME280;6172;42.646;23.344;2023-07-16T00:25:31;94810.72;;;22.26;100.00
12219;BME280;6172;42.646;23.344;2023-07-16T00:27:59;94811.38;;;22.21;100.00
12219;BME280;6172;42.646;23.344;2023-07-16T00:30:26;94815.00;;;22.27;100.00
12219;BME280;6172;42.646;23.344;2023-07-16T00:32:52;94805.41;;;22.08;100.00
12219;BME280;6172;42.646;23.344;2023-07-16T00:35:19;94802.44;;;22.11;100.00
12219;BME280;6172;42.646;23.344;2023-07-16T00:37:46;94814.06;;;21.95;100.00
12219;BME280;6172;42.646;23.344;2023-07-16T00:40:13;94806.59;;;22.01;100.00
12219;BME280;6172;42.646;23.344;2023-07-16T00:42:40;94813.88;;;21.99;100.00
12219;BME280;6172;42.646;23.344;2023-07-16T00:45:11;94807.59;;;21.84;100.00
12219;BME280;6172;42.646;23.344;2023-07-16T00:47:39;94816.22;;;21.86;100.00
12219;BME280;6172;42.646;23.344;2023-07-16T00:50:07;94804.91;;;21.89;100.00
12219;BME280;6172;42.646;23.344;2023-07-16T00:52:34;94810.81;;;21.97;100.00
12219;BME280;6172;42.646;23.344;2023-07-16T00:55:02;94811.22;;;21.90;100.00
12219;BME280;6172;42.646;23.344;2023-07-16T00:57:29;94814.66;;;21.85;100.00
12219;BME280;6172;42.646;23.344;2023-07-16T00:59:56;94820.47;;;21.66;100.00
12219;BME280;6172;42.646;23.344;2023-07-16T01:02:24;94816.66;;;21.64;100.00
12219;BME280;6172;42.646;23.344;2023-07-16T01:04:52;94816.19;;;21.65;100.00
12219;BME280;6172;42.646;23.344;2023-07-16T01:07:21;94819.16;;;21.62;100.00
12219;BME280;6172;42.646;23.344;2023-07-16T01:09:51;94807.56;;;21.63;100.00
12219;BME280;6172;42.646;23.344;2023-07-16T01:12:21;94817.97;;;21.68;100.00
12219;BME280;6172;42.646;23.344;2023-07-16T01:14:49;94821.63;;;21.60;100.00
12219;BME280;6172;42.646;23.344;2023-07-16T01:17:17;94818.44;;;21.67;100.00
12219;BME280;6172;42.646;23.344;2023-07-16T01:19:45;94816.84;;;21.60;100.00
12219;BME280;6172;42.646;23.344;2023-07-16T01:22:42;94815.03;;;21.57;100.00
12219;BME280;6172;42.646;23.344;2023-07-16T01:25:36;94812.41;;;21.68;100.00
12219;BME280;6172;42.646;23.344;2023-07-16T01:28:23;94813.88;;;21.64;100.00
12219;BME280;6172;42.646;23.344;2023-07-16T01:30:55;94813.03;;;21.58;100.00
12219;BME280;6172;42.646;23.344;2023-07-16T01:33:25;94807.09;;;21.50;100.00
12219;BME280;6172;42.646;23.344;2023-07-16T01:35:52;94817.81;;;21.57;100.00
12219;BME280;6172;42.646;23.344;2023-07-16T01:38:19;94811.31;;;21.60;100.00
12219;BME280;6172;42.646;23.344;2023-07-16T01:40:48;94804.63;;;21.52;100.00
12219;BME280;6172;42.646;23.344;2023-07-16T01:43:15;94815.53;;;21.56;100.00
12219;BME280;6172;42.646;23.344;2023-07-16T01:45:42;94804.16;;;21.54;100.00
12219;BME280;6172;42.646;23.344;2023-07-16T01:48:21;94826.34;;;21.39;100.00
12219;BME280;6172;42.646;23.344;2023-07-16T01:50:51;94824.13;;;21.43;100.00
12219;BME280;6172;42.646;23.344;2023-07-16T01:53:17;94823.91;;;21.47;100.00
12219;BME280;6172;42.646;23.344;2023-07-16T01:55:44;94816.84;;;21.46;100.00
12219;BME280;6172;42.646;23.344;2023-07-16T01:58:11;94816.94;;;21.37;100.00
12219;BME280;6172;42.646;23.344;2023-07-16T02:00:39;94822.63;;;21.28;100.00
12219;BME280;6172;42.646;23.344;2023-07-16T02:03:06;94820.50;;;21.37;100.00
12219;BME280;6172;42.646;23.344;2023-07-16T02:05:34;94817.47;;;21.21;100.00
12219;BME280;6172;42.646;23.344;2023-07-16T02:08:01;94820.19;;;21.35;100.00
12219;BME280;6172;42.646;23.344;2023-07-16T02:10:28;94819.53;;;21.40;100.00
12219;BME280;6172;42.646;23.344;2023-07-16T02:12:55;94816.59;;;21.29;100.00
12219;BME280;6172;42.646;23.344;2023-07-16T02:15:22;94826.06;;;21.23;100.00
12219;BME280;6172;42.646;23.344;2023-07-16T02:17:49;94817.34;;;21.15;100.00
12219;BME280;6172;42.646;23.344;2023-07-16T02:20:17;94823.41;;;20.99;100.00
12219;BME280;6172;42.646;23.344;2023-07-16T02:22:45;94826.53;;;20.92;100.00
12219;BME280;6172;42.646;23.344;2023-07-16T02:25:12;94833.63;;;20.93;100.00
12219;BME280;6172;42.646;23.344;2023-07-16T02:27:39;94825.69;;;20.86;100.00
12219;BME280;6172;42.646;23.344;2023-07-16T02:30:07;94814.69;;;20.92;100.00
12219;BME280;6172;42.646;23.344;2023-07-16T02:32:34;94825.47;;;20.90;100.00
12219;BME280;6172;42.646;23.344;2023-07-16T02:35:00;94827.97;;;20.88;100.00
12219;BME280;6172;42.646;23.344;2023-07-16T02:37:28;94823.88;;;20.83;100.00
12219;BME280;6172;42.646;23.344;2023-07-16T02:39:56;94829.28;;;20.78;100.00
12219;BME280;6172;42.646;23.344;2023-07-16T02:42:23;94822.97;;;20.77;100.00
12219;BME280;6172;42.646;23.344;2023-07-16T02:44:50;94827.84;;;20.82;100.00
12219;BME280;6172;42.646;23.344;2023-07-16T02:47:17;94824.09;;;20.71;100.00
12219;BME280;6172;42.646;23.344;2023-07-16T02:49:44;94823.34;;;20.70;100.00
12219;BME280;6172;42.646;23.344;2023-07-16T02:52:11;94831.56;;;20.65;100.00
12219;BME280;6172;42.646;23.344;2023-07-16T02:54:38;94825.03;;;20.53;100.00
12219;BME280;6172;42.646;23.344;2023-07-16T02:57:06;94828.59;;;20.68;100.00
12219;BME280;6172;42.646;23.344;2023-07-16T02:59:33;94819.09;;;20.46;100.00
12219;BME280;6172;42.646;23.344;2023-07-16T03:02:00;94830.28;;;20.51;100.00
12219;BME280;6172;42.646;23.344;2023-07-16T03:04:29;94826.16;;;20.47;100.00
12219;BME280;6172;42.646;23.344;2023-07-16T03:06:56;94838.00;;;20.47;100.00
12219;BME280;6172;42.646;23.344;2023-07-16T03:09:23;94829.41;;;20.45;100.00
12219;BME280;6172;42.646;23.344;2023-07-16T03:11:50;94831.13;;;20.43;100.00
12219;BME280;6172;42.646;23.344;2023-07-16T03:14:18;94832.84;;;20.40;100.00
12219;BME280;6172;42.646;23.344;2023-07-16T03:16:45;94846.22;;;20.42;100.00
12219;BME280;6172;42.646;23.344;2023-07-16T03:19:12;94838.00;;;20.47;100.00
12219;BME280;6172;42.646;23.344;2023-07-16T03:21:39;94840.25;;;20.34;100.00
12219;BME280;6172;42.646;23.344;2023-07-16T03:24:06;94841.41;;;20.42;100.00
12219;BME280;6172;42.646;23.344;2023-07-16T03:26:33;94844.28;;;20.33;100.00
12219;BME280;6172;42.646;23.344;2023-07-16T03:28:59;94847.72;;;20.43;100.00
12219;BME280;6172;42.646;23.344;2023-07-16T03:31:28;94846.31;;;20.47;100.00
12219;BME280;6172;42.646;23.344;2023-07-16T03:33:55;94850.59;;;20.48;100.00
12219;BME280;6172;42.646;23.344;2023-07-16T03:36:21;94853.47;;;20.54;100.00
12219;BME280;6172;42.646;23.344;2023-07-16T03:38:48;94847.72;;;20.43;100.00
12219;BME280;6172;42.646;23.344;2023-07-16T03:41:15;94848.72;;;20.54;100.00
12219;BME280;6172;42.646;23.344;2023-07-16T03:43:42;94858.81;;;20.43;100.00
12219;BME280;6172;42.646;23.344;2023-07-16T03:46:08;94858.16;;;20.62;100.00
12219;BME280;6172;42.646;23.344;2023-07-16T03:48:37;94855.88;;;20.61;100.00
12219;BME280;6172;42.646;23.344;2023-07-16T03:51:03;94854.50;;;20.42;100.00
12219;BME280;6172;42.646;23.344;2023-07-16T03:53:30;94858.78;;;20.66;100.00
12219;BME280;6172;42.646;23.344;2023-07-16T03:55:57;94847.78;;;20.57;100.00
12219;BME280;6172;42.646;23.344;2023-07-16T03:58:24;94853.91;;;20.76;100.00
12219;BME280;6172;42.646;23.344;2023-07-16T04:00:53;94848.75;;;20.69;100.00
12219;BME280;6172;42.646;23.344;2023-07-16T04:03:20;94854.50;;;20.80;100.00
12219;BME280;6172;42.646;23.344;2023-07-16T04:05:48;94866.00;;;20.87;100.00
12219;BME280;6172;42.646;23.344;2023-07-16T04:08:15;94859.13;;;20.97;100.00
12219;BME280;6172;42.646;23.344;2023-07-16T04:10:42;94867.59;;;20.79;100.00
12219;BME280;6172;42.646;23.344;2023-07-16T04:13:09;94865.72;;;21.00;100.00
12219;BME280;6172;42.646;23.344;2023-07-16T04:15:35;94856.28;;;21.06;100.00
12219;BME280;6172;42.646;23.344;2023-07-16T04:18:02;94859.53;;;21.19;100.00
12219;BME280;6172;42.646;23.344;2023-07-16T04:20:29;94863.59;;;21.24;100.00
12219;BME280;6172;42.646;23.344;2023-07-16T04:23:00;94868.03;;;21.30;100.00
12219;BME280;6172;42.646;23.344;2023-07-16T04:25:27;94861.13;;;21.40;100.00
12219;BME280;6172;42.646;23.344;2023-07-16T04:27:54;94863.03;;;21.49;100.00
12219;BME280;6172;42.646;23.344;2023-07-16T04:30:21;94862.56;;;21.50;100.00
12219;BME280;6172;42.646;23.344;2023-07-16T04:32:47;94865.66;;;21.52;100.00
12219;BME280;6172;42.646;23.344;2023-07-16T04:35:14;94864.78;;;21.61;100.00
12219;BME280;6172;42.646;23.344;2023-07-16T04:37:41;94870.41;;;21.66;100.00
12219;BME280;6172;42.646;23.344;2023-07-16T04:40:10;94876.41;;;21.80;100.00
12219;BME280;6172;42.646;23.344;2023-07-16T04:42:37;94863.75;;;21.78;100.00
12219;BME280;6172;42.646;23.344;2023-07-16T04:45:04;94867.13;;;21.83;100.00
12219;BME280;6172;42.646;23.344;2023-07-16T04:47:31;94872.69;;;21.83;100.00
12219;BME280;6172;42.646;23.344;2023-07-16T04:49:59;94878.72;;;21.66;100.00
12219;BME280;6172;42.646;23.344;2023-07-16T04:52:26;94871.94;;;21.67;100.00
12219;BME280;6172;42.646;23.344;2023-07-16T04:54:53;94875.41;;;21.62;100.00
12219;BME280;6172;42.646;23.344;2023-07-16T04:57:21;94878.00;;;21.86;100.00
12219;BME280;6172;42.646;23.344;2023-07-16T04:59:48;94876.50;;;21.85;100.00
12219;BME280;6172;42.646;23.344;2023-07-16T05:02:15;94885.25;;;21.98;100.00
12219;BME280;6172;42.646;23.344;2023-07-16T05:04:43;94876.16;;;21.98;100.00
12219;BME280;6172;42.646;23.344;2023-07-16T05:07:12;94880.63;;;22.10;100.00
12219;BME280;6172;42.646;23.344;2023-07-16T05:09:39;94881.75;;;22.18;100.00
12219;BME280;6172;42.646;23.344;2023-07-16T05:12:06;94876.47;;;22.20;100.00
12219;BME280;6172;42.646;23.344;2023-07-16T05:14:43;94881.00;;;22.17;100.00
12219;BME280;6172;42.646;23.344;2023-07-16T05:17:10;94879.66;;;22.27;100.00
12219;BME280;6172;42.646;23.344;2023-07-16T05:19:37;94867.56;;;22.30;100.00
12219;BME280;6172;42.646;23.344;2023-07-16T05:22:04;94873.75;;;22.60;100.00
12219;BME280;6172;42.646;23.344;2023-07-16T05:24:31;94874.44;;;22.75;100.00
12219;BME280;6172;42.646;23.344;2023-07-16T05:26:58;94884.00;;;22.94;100.00
12219;BME280;6172;42.646;23.344;2023-07-16T05:29:25;94889.13;;;23.01;100.00
12219;BME280;6172;42.646;23.344;2023-07-16T05:31:53;94880.59;;;23.04;100.00
12219;BME280;6172;42.646;23.344;2023-07-16T05:34:20;94883.31;;;22.99;100.00
12219;BME280;6172;42.646;23.344;2023-07-16T05:36:47;94873.44;;;22.98;100.00
12219;BME280;6172;42.646;23.344;2023-07-16T05:39:13;94886.03;;;22.93;100.00
12219;BME280;6172;42.646;23.344;2023-07-16T05:41:40;94880.66;;;23.10;100.00
12219;BME280;6172;42.646;23.344;2023-07-16T05:44:07;94874.53;;;23.31;100.00
12219;BME280;6172;42.646;23.344;2023-07-16T05:46:34;94880.47;;;23.44;100.00
12219;BME280;6172;42.646;23.344;2023-07-16T05:49:03;94885.38;;;23.55;100.00
12219;BME280;6172;42.646;23.344;2023-07-16T05:51:29;94896.94;;;23.73;100.00
12219;BME280;6172;42.646;23.344;2023-07-16T05:53:57;94899.16;;;24.01;100.00
12219;BME280;6172;42.646;23.344;2023-07-16T05:56:24;94893.13;;;24.92;100.00
12219;BME280;6172;42.646;23.344;2023-07-16T05:58:51;94891.03;;;25.89;100.00
12219;BME280;6172;42.646;23.344;2023-07-16T06:01:18;94892.47;;;27.14;100.00
12219;BME280;6172;42.646;23.344;2023-07-16T06:03:45;94890.50;;;27.49;94.28
12219;BME280;6172;42.646;23.344;2023-07-16T06:06:13;94892.66;;;29.04;83.94
12219;BME280;6172;42.646;23.344;2023-07-16T06:08:40;94888.63;;;30.05;72.63
12219;BME280;6172;42.646;23.344;2023-07-16T06:11:07;94881.75;;;30.19;72.39
12219;BME280;6172;42.646;23.344;2023-07-16T06:13:34;94890.34;;;31.78;62.01
12219;BME280;6172;42.646;23.344;2023-07-16T06:16:02;94893.66;;;32.51;56.96
12219;BME280;6172;42.646;23.344;2023-07-16T06:18:29;94887.97;;;32.02;55.58
12219;BME280;6172;42.646;23.344;2023-07-16T06:20:56;94888.00;;;31.69;58.32
12219;BME280;6172;42.646;23.344;2023-07-16T06:23:25;94879.88;;;33.67;49.81
12219;BME280;6172;42.646;23.344;2023-07-16T06:25:54;94883.09;;;33.94;49.14
12219;BME280;6172;42.646;23.344;2023-07-16T06:28:20;94886.00;;;34.31;47.59
12219;BME280;6172;42.646;23.344;2023-07-16T06:30:47;94883.56;;;35.90;42.25
12219;BME280;6172;42.646;23.344;2023-07-16T06:33:14;94880.63;;;36.05;40.94
12219;BME280;6172;42.646;23.344;2023-07-16T06:35:44;94884.13;;;35.88;41.38
12219;BME280;6172;42.646;23.344;2023-07-16T06:38:11;94877.72;;;36.20;40.58
12219;BME280;6172;42.646;23.344;2023-07-16T06:40:39;94884.28;;;36.54;39.54
12219;BME280;6172;42.646;23.344;2023-07-16T06:43:06;94871.75;;;37.50;36.63
12219;BME280;6172;42.646;23.344;2023-07-16T06:45:33;94876.69;;;35.14;40.45
12219;BME280;6172;42.646;23.344;2023-07-16T06:48:00;94870.22;;;36.56;39.05
12219;BME280;6172;42.646;23.344;2023-07-16T06:50:27;94873.94;;;34.53;42.31
12219;BME280;6172;42.646;23.344;2023-07-16T06:52:53;94860.03;;;35.25;41.55
12219;BME280;6172;42.646;23.344;2023-07-16T06:55:20;94867.16;;;36.13;39.88
12219;BME280;6172;42.646;23.344;2023-07-16T06:57:48;94871.53;;;36.38;39.35
12219;BME280;6172;42.646;23.344;2023-07-16T07:00:16;94873.56;;;35.49;40.85
12219;BME280;6172;42.646;23.344;2023-07-16T07:02:42;94879.44;;;34.59;41.38
12219;BME280;6172;42.646;23.344;2023-07-16T07:05:09;94869.63;;;33.57;44.16
12219;BME280;6172;42.646;23.344;2023-07-16T07:07:36;94875.22;;;32.50;47.52
12219;BME280;6172;42.646;23.344;2023-07-16T07:10:03;94867.16;;;33.61;45.02
12219;BME280;6172;42.646;23.344;2023-07-16T07:12:30;94861.66;;;34.66;42.79
12219;BME280;6172;42.646;23.344;2023-07-16T07:15:05;94868.75;;;35.67;40.79
12219;BME280;6172;42.646;23.344;2023-07-16T07:17:32;94874.81;;;36.03;39.98
12219;BME280;6172;42.646;23.344;2023-07-16T07:19:59;94871.94;;;35.71;39.66
12219;BME280;6172;42.646;23.344;2023-07-16T07:22:25;94870.69;;;35.89;38.82
12219;BME280;6172;42.646;23.344;2023-07-16T07:24:52;94871.09;;;35.93;38.81
12219;BME280;6172;42.646;23.344;2023-07-16T07:27:19;94863.38;;;36.84;38.00
12219;BME280;6172;42.646;23.344;2023-07-16T07:29:46;94852.34;;;37.83;35.28
12219;BME280;6172;42.646;23.344;2023-07-16T07:32:18;94854.03;;;37.42;36.18
12219;BME280;6172;42.646;23.344;2023-07-16T07:34:45;94856.97;;;36.59;37.32
12219;BME280;6172;42.646;23.344;2023-07-16T07:37:12;94861.88;;;36.09;38.00
12219;BME280;6172;42.646;23.344;2023-07-16T07:39:39;94864.97;;;35.17;40.57
12219;BME280;6172;42.646;23.344;2023-07-16T07:42:06;94863.84;;;36.24;38.32
12219;BME280;6172;42.646;23.344;2023-07-16T07:44:35;94857.66;;;35.54;39.01
12219;BME280;6172;42.646;23.344;2023-07-16T07:47:03;94863.22;;;36.82;36.81
12219;BME280;6172;42.646;23.344;2023-07-16T07:49:35;94858.38;;;37.09;36.96
12219;BME280;6172;42.646;23.344;2023-07-16T07:52:04;94850.47;;;37.95;36.02
12219;BME280;6172;42.646;23.344;2023-07-16T07:54:33;94853.78;;;37.14;36.62
12219;BME280;6172;42.646;23.344;2023-07-16T07:57:04;94851.28;;;37.01;36.80
12219;BME280;6172;42.646;23.344;2023-07-16T07:59:31;94851.25;;;37.95;35.15
12219;BME280;6172;42.646;23.344;2023-07-16T08:01:58;94851.75;;;37.58;35.69
12219;BME280;6172;42.646;23.344;2023-07-16T08:04:27;94852.00;;;38.22;35.27
12219;BME280;6172;42.646;23.344;2023-07-16T08:06:55;94846.94;;;35.77;37.95
12219;BME280;6172;42.646;23.344;2023-07-16T08:09:22;94859.16;;;35.94;38.65
12219;BME280;6172;42.646;23.344;2023-07-16T08:11:49;94849.31;;;35.88;38.75
12219;BME280;6172;42.646;23.344;2023-07-16T08:14:16;94856.72;;;34.97;40.33
12219;BME280;6172;42.646;23.344;2023-07-16T08:16:42;94852.19;;;33.30;43.51
12219;BME280;6172;42.646;23.344;2023-07-16T08:19:10;94855.09;;;34.56;41.87
12219;BME280;6172;42.646;23.344;2023-07-16T08:21:36;94855.00;;;35.56;39.73
12219;BME280;6172;42.646;23.344;2023-07-16T08:24:06;94857.75;;;35.71;39.89
12219;BME280;6172;42.646;23.344;2023-07-16T08:26:33;94848.88;;;35.74;38.82
12219;BME280;6172;42.646;23.344;2023-07-16T08:29:00;94855.09;;;35.26;39.52
12219;BME280;6172;42.646;23.344;2023-07-16T08:31:28;94852.59;;;35.84;39.35
12219;BME280;6172;42.646;23.344;2023-07-16T08:33:54;94856.78;;;36.08;38.53
12219;BME280;6172;42.646;23.344;2023-07-16T08:36:21;94860.56;;;35.31;40.10
12219;BME280;6172;42.646;23.344;2023-07-16T08:38:48;94844.28;;;34.77;42.09
12219;BME280;6172;42.646;23.344;2023-07-16T08:41:16;94857.50;;;34.75;41.80
12219;BME280;6172;42.646;23.344;2023-07-16T08:43:46;94859.91;;;34.93;41.20
12219;BME280;6172;42.646;23.344;2023-07-16T08:46:13;94860.47;;;34.92;40.98
12219;BME280;6172;42.646;23.344;2023-07-16T08:48:42;94849.59;;;34.13;42.24
12219;BME280;6172;42.646;23.344;2023-07-16T08:51:10;94853.69;;;32.96;45.57
12219;BME280;6172;42.646;23.344;2023-07-16T08:53:37;94850.75;;;33.09;45.63
12219;BME280;6172;42.646;23.344;2023-07-16T08:56:05;94854.13;;;32.43;47.06
12219;BME280;6172;42.646;23.344;2023-07-16T08:58:34;94847.38;;;33.10;45.97
12219;BME280;6172;42.646;23.344;2023-07-16T09:01:03;94850.31;;;32.97;45.88
12219;BME280;6172;42.646;23.344;2023-07-16T09:03:30;94850.56;;;33.50;45.17
12219;BME280;6172;42.646;23.344;2023-07-16T09:05:56;94844.63;;;33.83;45.09
12219;BME280;6172;42.646;23.344;2023-07-16T09:08:23;94839.13;;;33.70;44.52
12219;BME280;6172;42.646;23.344;2023-07-16T09:10:54;94842.53;;;33.76;45.48
12219;BME280;6172;42.646;23.344;2023-07-16T09:13:22;94843.72;;;33.96;44.60
12219;BME280;6172;42.646;23.344;2023-07-16T09:15:54;94839.72;;;33.18;46.05
12219;BME280;6172;42.646;23.344;2023-07-16T09:18:21;94836.31;;;32.28;48.53
12219;BME280;6172;42.646;23.344;2023-07-16T09:20:48;94843.50;;;32.85;47.69
12219;BME280;6172;42.646;23.344;2023-07-16T09:23:17;94840.66;;;32.85;47.17
12219;BME280;6172;42.646;23.344;2023-07-16T09:25:44;94837.50;;;32.61;48.83
12219;BME280;6172;42.646;23.344;2023-07-16T09:28:12;94840.31;;;32.12;50.34
12219;BME280;6172;42.646;23.344;2023-07-16T09:30:39;94836.31;;;31.87;52.38
12219;BME280;6172;42.646;23.344;2023-07-16T09:33:15;94835.56;;;32.27;51.14
12219;BME280;6172;42.646;23.344;2023-07-16T09:35:44;94832.38;;;32.87;49.52
12219;BME280;6172;42.646;23.344;2023-07-16T09:38:11;94828.78;;;32.79;49.27
12219;BME280;6172;42.646;23.344;2023-07-16T09:40:38;94833.09;;;32.80;51.05
12219;BME280;6172;42.646;23.344;2023-07-16T09:43:06;94828.56;;;32.49;50.18
12219;BME280;6172;42.646;23.344;2023-07-16T09:45:33;94824.16;;;32.97;48.66
12219;BME280;6172;42.646;23.344;2023-07-16T09:48:00;94828.56;;;33.63;47.93
12219;BME280;6172;42.646;23.344;2023-07-16T09:50:29;94812.88;;;33.55;47.36
12219;BME280;6172;42.646;23.344;2023-07-16T09:52:59;94818.50;;;33.47;47.29
12219;BME280;6172;42.646;23.344;2023-07-16T09:55:30;94815.03;;;33.19;46.93
12219;BME280;6172;42.646;23.344;2023-07-16T09:57:59;94814.47;;;33.93;46.52
12219;BME280;6172;42.646;23.344;2023-07-16T10:00:27;94811.66;;;34.38;44.91
12219;BME280;6172;42.646;23.344;2023-07-16T10:02:55;94805.81;;;34.59;44.32
12219;BME280;6172;42.646;23.344;2023-07-16T10:05:24;94814.31;;;34.29;44.72
12219;BME280;6172;42.646;23.344;2023-07-16T10:07:55;94807.72;;;34.26;45.06
12219;BME280;6172;42.646;23.344;2023-07-16T10:10:26;94797.81;;;34.80;44.87
12219;BME280;6172;42.646;23.344;2023-07-16T10:12:57;94802.78;;;34.72;44.13
12219;BME280;6172;42.646;23.344;2023-07-16T10:15:25;94792.22;;;34.58;43.82
12219;BME280;6172;42.646;23.344;2023-07-16T10:17:53;94792.28;;;34.97;43.79
12219;BME280;6172;42.646;23.344;2023-07-16T10:20:29;94797.34;;;34.21;45.24
12219;BME280;6172;42.646;23.344;2023-07-16T10:22:58;94794.63;;;34.84;43.58
12219;BME280;6172;42.646;23.344;2023-07-16T10:25:26;94795.81;;;35.20;42.81
12219;BME280;6172;42.646;23.344;2023-07-16T10:27:55;94794.75;;;35.48;41.77
12219;BME280;6172;42.646;23.344;2023-07-16T10:30:22;94795.63;;;34.56;44.19
12219;BME280;6172;42.646;23.344;2023-07-16T10:32:51;94789.59;;;34.44;45.09
12219;BME280;6172;42.646;23.344;2023-07-16T10:35:18;94788.25;;;34.53;44.63
12219;BME280;6172;42.646;23.344;2023-07-16T10:37:45;94780.19;;;35.51;42.58
12219;BME280;6172;42.646;23.344;2023-07-16T10:40:14;94782.53;;;35.70;41.88
12219;BME280;6172;42.646;23.344;2023-07-16T10:42:42;94781.88;;;35.07;43.18
12219;BME280;6172;42.646;23.344;2023-07-16T10:45:10;94784.56;;;35.77;40.17
12219;BME280;6172;42.646;23.344;2023-07-16T10:47:39;94782.81;;;35.81;39.49
12219;BME280;6172;42.646;23.344;2023-07-16T10:50:07;94777.88;;;35.82;39.41
12219;BME280;6172;42.646;23.344;2023-07-16T10:52:36;94786.78;;;35.54;40.98
12219;BME280;6172;42.646;23.344;2023-07-16T10:55:04;94782.31;;;34.89;41.64
12219;BME280;6172;42.646;23.344;2023-07-16T10:57:33;94769.22;;;34.38;42.31
12219;BME280;6172;42.646;23.344;2023-07-16T10:59:59;94769.78;;;34.37;42.69
12219;BME280;6172;42.646;23.344;2023-07-16T11:02:27;94773.38;;;33.92;44.34
12219;BME280;6172;42.646;23.344;2023-07-16T11:04:54;94773.69;;;33.51;45.70
12219;BME280;6172;42.646;23.344;2023-07-16T11:07:22;94767.84;;;33.49;46.35
12219;BME280;6172;42.646;23.344;2023-07-16T11:09:52;94767.66;;;32.54;49.32
12219;BME280;6172;42.646;23.344;2023-07-16T11:12:21;94765.63;;;33.05;48.19
12219;BME280;6172;42.646;23.344;2023-07-16T11:14:52;94760.84;;;33.28;48.29
12219;BME280;6172;42.646;23.344;2023-07-16T11:17:20;94759.34;;;33.27;47.41
12219;BME280;6172;42.646;23.344;2023-07-16T11:19:49;94752.94;;;33.34;47.50
12219;BME280;6172;42.646;23.344;2023-07-16T11:22:16;94755.53;;;32.74;49.71
12219;BME280;6172;42.646;23.344;2023-07-16T11:24:44;94760.06;;;33.20;48.33
12219;BME280;6172;42.646;23.344;2023-07-16T11:27:16;94741.31;;;32.87;48.75
12219;BME280;6172;42.646;23.344;2023-07-16T11:29:47;94747.81;;;32.67;48.92
12219;BME280;6172;42.646;23.344;2023-07-16T11:32:26;94746.50;;;33.18;48.32
12219;BME280;6172;42.646;23.344;2023-07-16T11:34:53;94744.31;;;32.53;50.63
12219;BME280;6172;42.646;23.344;2023-07-16T11:37:20;94753.56;;;32.97;49.16
12219;BME280;6172;42.646;23.344;2023-07-16T11:39:47;94741.78;;;32.70;49.70
12219;BME280;6172;42.646;23.344;2023-07-16T11:42:17;94749.00;;;32.86;50.27
12219;BME280;6172;42.646;23.344;2023-07-16T11:44:49;94741.59;;;32.40;50.88
12219;BME280;6172;42.646;23.344;2023-07-16T11:47:18;94735.78;;;32.74;49.50
12219;BME280;6172;42.646;23.344;2023-07-16T11:49:45;94735.19;;;32.32;50.32
12219;BME280;6172;42.646;23.344;2023-07-16T11:52:12;94749.69;;;32.72;50.06
12219;BME280;6172;42.646;23.344;2023-07-16T11:54:39;94740.72;;;32.52;48.89
12219;BME280;6172;42.646;23.344;2023-07-16T11:57:06;94745.81;;;32.54;48.40
12219;BME280;6172;42.646;23.344;2023-07-16T11:59:33;94742.47;;;32.63;47.31
12219;BME280;6172;42.646;23.344;2023-07-16T12:02:00;94746.00;;;32.20;47.29
12219;BME280;6172;42.646;23.344;2023-07-16T12:04:29;94740.28;;;32.33;46.81
12219;BME280;6172;42.646;23.344;2023-07-16T12:06:56;94733.19;;;32.47;44.45
12219;BME280;6172;42.646;23.344;2023-07-16T12:09:23;94725.66;;;32.86;44.17
12219;BME280;6172;42.646;23.344;2023-07-16T12:11:50;94737.28;;;32.75;44.32
12219;BME280;6172;42.646;23.344;2023-07-16T12:14:17;94730.66;;;32.65;43.63
12219;BME280;6172;42.646;23.344;2023-07-16T12:16:45;94729.81;;;32.85;42.53
12219;BME280;6172;42.646;23.344;2023-07-16T12:19:12;94727.91;;;32.87;42.86
12219;BME280;6172;42.646;23.344;2023-07-16T12:21:40;94733.19;;;32.83;41.99
12219;BME280;6172;42.646;23.344;2023-07-16T12:24:07;94726.44;;;32.94;41.57
12219;BME280;6172;42.646;23.344;2023-07-16T12:26:33;94724.19;;;32.92;40.79
12219;BME280;6172;42.646;23.344;2023-07-16T12:29:00;94713.22;;;32.81;42.49
12219;BME280;6172;42.646;23.344;2023-07-16T12:31:29;94717.31;;;32.65;42.22
12219;BME280;6172;42.646;23.344;2023-07-16T12:33:56;94718.25;;;33.18;43.00
12219;BME280;6172;42.646;23.344;2023-07-16T12:36:23;94720.03;;;32.93;43.62
12219;BME280;6172;42.646;23.344;2023-07-16T12:38:51;94718.19;;;33.03;39.64
12219;BME280;6172;42.646;23.344;2023-07-16T12:41:18;94722.97;;;32.37;41.89
12219;BME280;6172;42.646;23.344;2023-07-16T12:43:47;94719.06;;;32.12;39.04
12219;BME280;6172;42.646;23.344;2023-07-16T12:46:14;94723.56;;;32.15;39.84
12219;BME280;6172;42.646;23.344;2023-07-16T12:48:41;94711.28;;;32.33;40.29
12219;BME280;6172;42.646;23.344;2023-07-16T12:51:08;94709.34;;;32.20;40.85
12219;BME280;6172;42.646;23.344;2023-07-16T12:53:35;94711.00;;;32.52;41.29
12219;BME280;6172;42.646;23.344;2023-07-16T12:56:04;94704.91;;;32.68;41.30
12219;BME280;6172;42.646;23.344;2023-07-16T12:58:31;94697.66;;;32.52;42.59